Data for 04/29/2018

Time Sea-Level Adjusted Pressure Absolute Pressure Temperature Relative Humidity Dew Point   
(mb) (inHg) (mb) (inHg) (C) (F) (%) (C) (F)
00:05 1008 29.77 838 24.75 15.1 59.2 32 -1.4 29.6
00:10 1008 29.77 838 24.75 15.1 59.1 32 -1.3 29.6
00:15 1008 29.77 837 24.72 14.9 58.8 33 -1.3 29.7
00:20 1008 29.77 837 24.72 14.9 58.7 32 -1.5 29.3
00:25 1008 29.77 837 24.72 15 59 31 -1.9 28.5
00:30 1008 29.77 837 24.72 15.1 59.3 30 -2 28.3
00:35 1008 29.77 837 24.72 15.2 59.3 30 -2 28.3
00:40 1008 29.77 838 24.75 15.2 59.3 30 -2.1 28.2
00:45 1008 29.77 838 24.75 15.1 59.1 31 -1.8 28.7
00:50 1008 29.77 838 24.75 15 59.1 30 -2.5 27.5
00:55 1008 29.77 837 24.72 15.2 59.3 30 -2.3 27.8
01:00 1008 29.77 837 24.72 15.2 59.3 29 -2.5 27.5
01:05 1008 29.77 837 24.72 15.3 59.6 29 -2.5 27.5
01:10 1008 29.77 838 24.75 15.3 59.5 30 -1.9 28.5
01:15 1009 29.8 838 24.75 14.9 58.8 31 -2.2 28.1
01:20 1009 29.8 838 24.75 14.8 58.6 31 -2 28.3
01:25 1009 29.8 838 24.75 14.7 58.5 31 -2.4 27.8
01:30 1009 29.8 838 24.75 14.4 57.8 32 -2 28.4
01:35 1009 29.8 838 24.75 13.8 56.9 33 -2.1 28.1
01:40 1009 29.8 838 24.75 13.7 56.6 33 -2.2 28.1
01:45 1009 29.8 838 24.75 13.6 56.5 39 0.1 32.2
01:50 1009 29.8 838 24.75 13 55.5 43 0.8 33.4
01:55 1009 29.8 838 24.75 12.6 54.7 44 0.7 33.2
02:00 1009 29.8 838 24.75 12.4 54.2 45 0.9 33.5
02:05 1009 29.8 838 24.75 12.1 53.7 47 1.1 34
02:10 1009 29.8 838 24.75 11.8 53.2 47 1 33.8
02:15 1009 29.8 838 24.75 11.7 53.1 48 1.1 34
02:20 1009 29.8 838 24.75 11.5 52.8 49 1.2 34.2
02:25 1009 29.8 839 24.78 11.3 52.3 51 1.5 34.6
02:30 1009 29.8 839 24.78 11.1 51.9 51 1.4 34.5
02:35 1009 29.8 839 24.78 10.8 51.4 52 1.4 34.6
02:40 1010 29.83 839 24.78 10.5 50.9 53 1.5 34.7
02:45 1010 29.83 839 24.78 10.2 50.3 56 1.8 35.3
02:50 1010 29.83 839 24.78 9.8 49.6 58 2 35.7
02:55 1010 29.83 839 24.78 9.5 49 60 2.1 35.8
03:00 1010 29.83 839 24.78 9.1 48.3 62 2.2 35.9
03:05 1010 29.83 839 24.78 8.7 47.6 64 2.2 35.9
03:10 1010 29.83 839 24.78 8.5 47.3 63 1.9 35.5
03:15 1010 29.83 839 24.78 8.5 47.3 63 1.9 35.5
03:20 1010 29.83 839 24.78 8.5 47.3 63 1.9 35.5
03:25 1010 29.83 839 24.78 8.4 47.2 63 1.9 35.4
03:30 1010 29.83 839 24.78 8.4 47.1 63 1.9 35.4
03:35 1010 29.83 839 24.78 8.4 47.1 63 1.9 35.4
03:40 1010 29.83 839 24.78 8.4 47.1 63 1.8 35.3
03:45 1010 29.83 840 24.81 8.4 47.1 63 1.8 35.2
03:50 1010 29.83 840 24.81 8.4 47.1 63 1.8 35.3
03:55 1010 29.83 840 24.81 8.3 47 63 1.7 35
04:00 1010 29.83 840 24.81 8.4 47.1 62 1.6 35
04:05 1010 29.83 840 24.81 8.4 47 63 1.8 35.2
04:10 1010 29.83 840 24.81 8.2 46.8 63 1.7 35
04:15 1010 29.83 840 24.81 8.2 46.8 64 1.7 35.1
04:20 1010 29.83 840 24.81 8.1 46.5 64 1.7 35
04:25 1010 29.83 839 24.78 8 46.5 64 1.7 35.1
04:30 1010 29.83 839 24.78 8 46.4 64 1.6 35
04:35 1010 29.83 839 24.78 8.1 46.5 64 1.7 35.1
04:40 1010 29.83 839 24.78 8 46.3 65 1.7 35.1
04:45 1010 29.83 839 24.78 7.9 46.2 65 1.8 35.2
04:50 1010 29.83 839 24.78 7.6 45.7 66 1.7 35.1
04:55 1010 29.83 839 24.78 7.4 45.2 67 1.6 34.8
05:00 1010 29.83 839 24.78 7.1 44.8 68 1.6 34.9
05:05 1010 29.83 839 24.78 6.8 44.3 68 1.3 34.4
05:10 1010 29.83 839 24.78 6.7 44 68 1.2 34.2
05:15 1010 29.83 839 24.78 6.6 43.9 68 1.2 34.2
05:20 1010 29.83 839 24.78 6.5 43.7 69 1.3 34.3
05:25 1010 29.83 839 24.78 6.3 43.4 70 1.2 34.1
05:30 1010 29.83 839 24.78 6.3 43.3 69 1 33.9
05:35 1010 29.83 839 24.78 6.2 43.1 69 1 33.8
05:40 1010 29.83 839 24.78 6.1 42.9 69 0.9 33.6
05:45 1010 29.83 839 24.78 6.1 43 69 0.9 33.7
05:50 1010 29.83 839 24.78 6 42.8 69 0.7 33.3
05:55 1010 29.83 839 24.78 6 42.7 69 0.7 33.2
06:00 1010 29.83 839 24.78 5.8 42.5 69 0.6 33.1
06:05 1010 29.83 839 24.78 5.6 42.1 69 0.4 32.8
06:10 1010 29.83 839 24.78 5.6 42 69 0.3 32.6
06:15 1010 29.83 839 24.78 5.4 41.7 70 0.3 32.6
06:20 1010 29.83 839 24.78 5.3 41.5 69 0.2 32.3
06:25 1010 29.83 840 24.81 5.3 41.5 69 0.1 32.2
06:30 1010 29.83 840 24.81 5.1 41.2 70 0.1 32.2
06:35 1010 29.83 840 24.81 4.9 40.8 71 -0 32
06:40 1011 29.85 840 24.81 4.8 40.6 71 -0.1 31.8
06:45 1011 29.85 840 24.81 4.7 40.5 71 -0 31.9
06:50 1010 29.83 840 24.81 5 41 70 -0.1 31.8
06:55 1010 29.83 840 24.81 5.2 41.4 69 -0 31.9
07:00 1010 29.83 840 24.81 5.3 41.6 68 -0 31.9
07:05 1010 29.83 840 24.81 5.2 41.3 69 -0.1 31.8
07:10 1011 29.85 840 24.81 4.9 40.9 69 -0.2 31.7
07:15 1011 29.85 840 24.81 4.9 40.8 69 -0.2 31.6
07:20 1011 29.85 840 24.81 4.9 40.9 70 -0.1 31.9
07:25 1010 29.83 840 24.81 4.8 40.7 71 -0 32
07:30 1010 29.83 840 24.81 5 41 71 0.1 32.2
07:35 1010 29.83 840 24.81 5.2 41.3 71 0.4 32.7
07:40 1010 29.83 840 24.81 5.5 41.9 70 0.5 32.9
07:45 1010 29.83 840 24.81 5.9 42.7 69 0.6 33.1
07:50 1010 29.83 840 24.81 6.1 42.9 68 0.6 33
07:55 1010 29.83 840 24.81 6.4 43.6 67 0.7 33.3
08:00 1010 29.83 840 24.81 6.6 43.9 67 0.9 33.6
08:05 1010 29.83 840 24.81 6.9 44.5 66 1 33.7
08:10 1010 29.83 840 24.81 7.1 44.9 65 1.1 33.9
08:15 1010 29.83 840 24.81 7.5 45.5 63 1 33.9
08:20 1010 29.83 840 24.81 8.6 47.5 59 1.1 33.9
08:25 1010 29.83 840 24.81 9.1 48.3 59 1.4 34.6
08:30 1010 29.83 840 24.81 8.9 48 59 1.2 34.2
08:35 1010 29.83 840 24.81 9.1 48.4 59 1.5 34.7
08:40 1010 29.83 839 24.78 9.2 48.6 57 1.2 34.2
08:45 1010 29.83 840 24.81 8.9 48 60 1.5 34.7
08:50 1010 29.83 839 24.78 8.7 47.7 60 1.4 34.6
08:55 1010 29.83 839 24.78 9.3 48.7 58 1.5 34.6
09:00 1010 29.83 839 24.78 9.6 49.3 56 1.4 34.5
09:05 1010 29.83 839 24.78 9.3 48.7 58 1.6 34.8
09:10 1010 29.83 839 24.78 9.1 48.4 59 1.5 34.6
09:15 1010 29.83 839 24.78 9.5 49.1 58 1.6 34.9
09:20 1010 29.83 839 24.78 9.7 49.4 58 1.7 35.1
09:25 1010 29.83 839 24.78 9.9 49.9 57 1.8 35.2
09:30 1010 29.83 839 24.78 10 50 57 1.8 35.3
09:35 1010 29.83 839 24.78 10.1 50.2 57 2 35.6
09:40 1010 29.83 839 24.78 10.4 50.8 54 1.6 34.9
09:45 1010 29.83 839 24.78 11.4 52.6 51 1.6 34.8
09:50 1010 29.83 839 24.78 11.8 53.2 49 1.5 34.7
09:55 1010 29.83 839 24.78 11.7 53.1 50 1.7 35.1
10:00 1010 29.83 839 24.78 11.4 52.6 51 1.6 34.9
10:05 1010 29.83 839 24.78 11.5 52.8 50 1.6 34.9
10:10 1010 29.83 839 24.78 11.8 53.2 50 1.6 34.9
10:15 1010 29.83 839 24.78 12.2 53.9 48 1.5 34.7
10:20 1010 29.83 839 24.78 12.9 55.1 46 1.5 34.7
10:25 1010 29.83 839 24.78 12.2 54 49 2 35.5
10:30 1010 29.83 839 24.78 12.1 53.9 48 1.5 34.8
10:35 1010 29.83 839 24.78 12.7 54.8 47 1.7 35
10:40 1010 29.83 839 24.78 12.6 54.7 47 1.8 35.3
10:45 1010 29.83 839 24.78 12.3 54.1 47 1.5 34.6
10:50 1010 29.83 839 24.78 12.6 54.7 47 1.8 35.2
10:55 1010 29.83 839 24.78 12.5 54.4 48 1.7 35
11:00 1010 29.83 839 24.78 12.3 54.1 49 1.9 35.4
11:05 1010 29.83 839 24.78 12.4 54.2 48 1.9 35.3
11:10 1010 29.83 839 24.78 12.4 54.4 48 1.8 35.3
11:15 1010 29.83 839 24.78 12.6 54.6 47 1.6 34.9
11:20 1010 29.83 839 24.78 13.2 55.7 47 2.2 35.9
11:25 1010 29.83 839 24.78 13.4 56.1 47 2.5 36.5
11:30 1010 29.83 839 24.78 13.3 55.9 46 2 35.5
11:35 1010 29.83 839 24.78 13.3 56 45 1.7 35.1
11:40 1010 29.83 839 24.78 13.3 55.9 47 2.2 36
11:45 1010 29.83 839 24.78 13.2 55.8 45 1.6 34.8
11:50 1010 29.83 839 24.78 12.8 55.1 46 1.5 34.8
11:55 1010 29.83 839 24.78 12.9 55.1 46 1.7 35.1
12:00 1010 29.83 839 24.78 12.9 55.1 46 1.7 35
12:05 1010 29.83 839 24.78 12.9 55.1 45 1.4 34.6
12:10 1010 29.83 839 24.78 13.1 55.5 45 1.4 34.5
12:15 1010 29.83 839 24.78 13.2 55.8 46 1.8 35.3
12:20 1010 29.83 839 24.78 13 55.4 46 1.6 34.9
12:25 1010 29.83 839 24.78 13.7 56.6 44 1.7 35
12:30 1010 29.83 839 24.78 14.4 58 43 2.3 36.1
12:35 1010 29.83 839 24.78 13.4 56.2 46 2 35.5
12:40 1010 29.83 839 24.78 13.6 56.4 46 2.1 35.8
12:45 1010 29.83 839 24.78 14.2 57.6 43 1.8 35.3
12:50 1009 29.8 839 24.78 14.1 57.4 43 1.8 35.2
12:55 1009 29.8 839 24.78 14.6 58.3 39 1 33.8
13:00 1009 29.8 839 24.78 14.1 57.4 40 0.9 33.7
13:05 1009 29.8 838 24.75 14.3 57.7 38 0.4 32.8
13:10 1009 29.8 839 24.78 14.2 57.5 40 0.9 33.6
13:15 1009 29.8 839 24.78 13.7 56.7 40 0.4 32.6
13:20 1009 29.8 838 24.75 14.6 58.3 38 0.6 33.2
13:25 1009 29.8 838 24.75 14.7 58.5 38 0.6 33.1
13:30 1009 29.8 838 24.75 14.9 58.7 35 -0.5 31
13:35 1009 29.8 838 24.75 14.2 57.5 39 0.6 33.1
13:40 1009 29.8 839 24.78 13.6 56.4 40 0.2 32.3
13:45 1009 29.8 839 24.78 13.8 56.9 39 0.3 32.5
13:50 1009 29.8 839 24.78 14.2 57.6 38 0.2 32.3
13:55 1009 29.8 839 24.78 14 57.2 37 -0.2 31.6
14:00 1009 29.8 839 24.78 14 57.1 37 -0.4 31.3
14:05 1009 29.8 839 24.78 13.2 55.7 42 0.6 33.1
14:10 1009 29.8 839 24.78 12.3 54.2 46 1.1 34
14:15 1009 29.8 839 24.78 12.1 53.7 46 0.7 33.3
14:20 1010 29.83 839 24.78 11.6 52.8 46 0.3 32.6
14:25 1010 29.83 839 24.78 11.4 52.5 50 1.4 34.6
14:30 1010 29.83 839 24.78 10.5 50.9 55 1.8 35.3
14:35 1010 29.83 839 24.78 9.7 49.5 60 2.4 36.4
14:40 1010 29.83 839 24.78 8.9 48 64 2.5 36.5
14:45 1010 29.83 839 24.78 8.4 47.1 66 2.4 36.4
14:50 1010 29.83 839 24.78 8.3 46.9 67 2.6 36.6
14:55 1010 29.83 839 24.78 8.2 46.7 69 2.8 37
15:00 1010 29.83 840 24.81 8.4 47.1 68 2.9 37.2
15:05 1010 29.83 840 24.81 8.2 46.8 73 3.7 38.7
15:10 1010 29.83 840 24.81 7.9 46.2 71 3 37.4
15:15 1010 29.83 840 24.81 7.9 46.3 69 2.7 36.8
15:20 1010 29.83 840 24.81 8.1 46.5 69 2.8 37
15:25 1010 29.83 839 24.78 8 46.3 72 3.3 38
15:30 1010 29.83 839 24.78 8.2 46.8 71 3.2 37.7
15:35 1010 29.83 839 24.78 9 48.2 63 2.3 36.1
15:40 1010 29.83 839 24.78 9.6 49.4 60 2.2 36
15:45 1010 29.83 839 24.78 10.1 50.1 56 1.7 35.1
15:50 1010 29.83 839 24.78 10.6 51.2 55 1.9 35.4
15:55 1010 29.83 839 24.78 11.1 52 55 2.5 36.5
16:00 1010 29.83 839 24.78 11.1 52.1 55 2.4 36.4
16:05 1010 29.83 839 24.78 10.7 51.3 58 2.7 36.9
16:10 1010 29.83 839 24.78 10.1 50.1 57 2.1 35.8
16:15 1010 29.83 839 24.78 10.2 50.4 59 2.5 36.5
16:20 1010 29.83 839 24.78 10.2 50.4 57 2.2 36
16:25 1010 29.83 839 24.78 10.4 50.7 55 1.8 35.3
16:30 1010 29.83 839 24.78 10.3 50.6 55 1.6 34.9
16:35 1010 29.83 839 24.78 10.5 50.9 54 1.5 34.7
16:40 1010 29.83 839 24.78 10.9 51.7 52 1.5 34.6
16:45 1009 29.8 839 24.78 11.6 52.8 51 1.9 35.4
16:50 1010 29.83 839 24.78 11.7 53.1 50 1.7 35
16:55 1010 29.83 839 24.78 12.2 53.9 49 1.8 35.3
17:00 1010 29.83 839 24.78 11.9 53.3 49 1.6 34.8
17:05 1010 29.83 839 24.78 11.9 53.3 53 2.6 36.7
17:10 1010 29.83 839 24.78 11.9 53.3 52 2.2 36
17:15 1010 29.83 839 24.78 12.7 54.9 50 2.7 36.8
17:20 1010 29.83 839 24.78 12.7 54.8 52 3.2 37.8
17:25 1010 29.83 839 24.78 12.1 53.8 54 3 37.5
17:30 1010 29.83 839 24.78 11.9 53.3 54 3 37.4
17:35 1010 29.83 839 24.78 11.7 53 51 2 35.6
17:40 1010 29.83 839 24.78 11.5 52.7 52 2.1 35.8
17:45 1010 29.83 839 24.78 11.2 52.1 55 2.6 36.7
17:50 1010 29.83 839 24.78 11 51.8 54 2.2 35.9
17:55 1010 29.83 840 24.81 11 51.7 57 2.9 37.3
18:00 1010 29.83 840 24.81 11 51.8 62 4 39.2
18:05 1010 29.83 840 24.81 10.8 51.4 62 3.8 38.9
18:10 1011 29.85 840 24.81 10.4 50.8 63 3.8 38.9
18:15 1011 29.85 840 24.81 10 50.1 65 3.9 39
18:20 1011 29.85 840 24.81 9.8 49.7 66 3.8 38.8
18:25 1011 29.85 840 24.81 9.6 49.3 67 3.8 38.9
18:30 1011 29.85 840 24.81 9.1 48.3 68 3.5 38.3
18:35 1011 29.85 840 24.81 8.8 47.8 68 3.3 37.9
18:40 1011 29.85 840 24.81 8.8 47.8 65 2.7 36.8
18:45 1011 29.85 840 24.81 8.8 47.9 67 3.1 37.7
18:50 1011 29.85 840 24.81 9.1 48.4 66 3.1 37.6
18:55 1011 29.85 840 24.81 9.2 48.5 66 3.2 37.7
19:00 1011 29.85 840 24.81 9 48.2 68 3.4 38.1
19:05 1011 29.85 840 24.81 8.5 47.2 77 4.6 40.3
19:10 1011 29.85 840 24.81 8 46.3 77 4.3 39.7
19:15 1011 29.85 841 24.83 7.4 45.4 80 4.3 39.7
19:20 1011 29.85 841 24.83 6.7 44.1 81 3.7 38.6
19:25 1012 29.88 841 24.83 6.1 43 81 3.2 37.7
19:30 1012 29.88 841 24.83 5.3 41.6 83 2.7 36.8
19:35 1012 29.88 841 24.83 5.2 41.4 86 3.1 37.5
19:40 1012 29.88 841 24.83 5.2 41.4 86 3.1 37.6
19:45 1012 29.88 841 24.83 5.1 41.2 86 3 37.4
19:50 1012 29.88 841 24.83 4.9 40.9 87 3 37.5
19:55 1012 29.88 841 24.83 5.2 41.4 88 3.4 38.2
20:00 1012 29.88 841 24.83 5 41.1 89 3.4 38.1
20:05 1012 29.88 841 24.83 5 41 89 3.4 38.1
20:10 1012 29.88 841 24.83 5.1 41.2 88 3.4 38
20:15 1012 29.88 841 24.83 5.2 41.3 85 2.9 37.2
20:20 1012 29.88 841 24.83 5.3 41.6 84 2.8 37.1
20:25 1012 29.88 841 24.83 5.3 41.6 85 3.1 37.6
20:30 1012 29.88 841 24.83 5.3 41.5 87 3.3 38
20:35 1012 29.88 841 24.83 5.2 41.4 88 3.3 38
20:40 1012 29.88 841 24.83 5.2 41.4 87 3.2 37.8
20:45 1012 29.88 841 24.83 5.2 41.4 84 2.7 36.8
20:50 1012 29.88 841 24.83 5.3 41.5 83 2.6 36.7
20:55 1012 29.88 842 24.86 5.4 41.7 82 2.6 36.7
21:00 1012 29.88 842 24.86 5.4 41.7 85 3 37.4
21:05 1012 29.88 842 24.86 5.3 41.5 86 3.1 37.6
21:10 1012 29.88 842 24.86 5.2 41.3 85 3 37.3
21:15 1013 29.91 842 24.86 5.1 41.2 86 3 37.4
21:20 1013 29.91 842 24.86 5.1 41.2 87 3.1 37.6
21:25 1013 29.91 842 24.86 5.2 41.3 88 3.3 37.9
21:30 1013 29.91 842 24.86 5.2 41.4 87 3.3 37.9
21:35 1013 29.91 842 24.86 5.3 41.6 87 3.3 38
21:40 1013 29.91 842 24.86 5.6 42 82 2.7 36.9
21:45 1013 29.91 842 24.86 5.7 42.3 83 3 37.5
21:50 1013 29.91 842 24.86 5.7 42.2 84 3.2 37.7
21:55 1013 29.91 842 24.86 5.4 41.7 84 2.9 37.2
22:00 1013 29.91 842 24.86 5.1 41.1 85 2.7 36.9
22:05 1013 29.91 842 24.86 5 41.1 86 2.9 37.3
22:10 1013 29.91 842 24.86 5 41 87 3 37.3
22:15 1013 29.91 842 24.86 4.9 40.9 88 3 37.5
22:20 1013 29.91 842 24.86 4.9 40.8 87 2.9 37.2
22:25 1013 29.91 842 24.86 4.9 40.7 88 3 37.4
22:30 1013 29.91 842 24.86 4.8 40.6 87 2.9 37.2
22:35 1013 29.91 842 24.86 4.7 40.5 88 2.9 37.2
22:40 1013 29.91 842 24.86 4.7 40.5 88 2.9 37.3
22:45 1013 29.91 842 24.86 4.6 40.4 88 2.9 37.2
22:50 1013 29.91 843 24.89 4.6 40.3 88 2.8 37
22:55 1013 29.91 843 24.89 4.7 40.4 88 2.8 37.1
23:00 1013 29.91 843 24.89 4.7 40.5 87 2.8 37
23:05 1013 29.91 842 24.86 4.8 40.6 83 2.1 35.8
23:10 1013 29.91 842 24.86 4.8 40.7 83 2.3 36.1
23:15 1013 29.91 842 24.86 4.8 40.7 85 2.5 36.5
23:20 1013 29.91 842 24.86 4.8 40.7 85 2.6 36.6
23:25 1013 29.91 842 24.86 4.8 40.7 85 2.5 36.6
23:30 1013 29.91 842 24.86 4.8 40.7 86 2.6 36.7
23:35 1013 29.91 842 24.86 4.8 40.6 85 2.4 36.4
23:40 1013 29.91 842 24.86 4.7 40.4 85 2.3 36.2
23:45 1013 29.91 842 24.86 4.7 40.4 85 2.3 36.1
23:50 1013 29.91 842 24.86 4.7 40.5 85 2.4 36.4
23:55 1013 29.91 843 24.89 4.7 40.5 86 2.5 36.6
24:00 1013 29.91 843 24.89 4.8 40.7 86 2.7 36.8